Time;durP1;ratioP1;P1;durP2;ratioP2;P2;SDS_P1;SDS_P2;PMS_P1;PMS_P2;Temp;Humidity;BMP_temperature;BMP_pressure;BME280_temperature;BME280_humidity;BME280_pressure;Samples;Min_cycle;Max_cycle;Signal;HPM_P1;HPM_P2
2024/04/08 00:00:33;;;;;;;;;;;17.50;76.10;;;;;;5004794;28;20438;-67
2024/04/08 00:03:05;;;;;;;;;;;17.50;76.20;;;;;;5005636;28;19944;-68
2024/04/08 00:05:34;;;;;;;;;;;17.50;76.10;;;;;;5005654;28;19933;-67
2024/04/08 00:08:08;;;;;;;;;;;17.40;76.10;;;;;;5004496;28;19926;-67
2024/04/08 00:10:40;;;;;;;;;;;17.40;76.00;;;;;;5001224;28;19939;-67
2024/04/08 00:13:14;;;;;;;;;;;17.40;75.90;;;;;;4999987;28;19936;-67
2024/04/08 00:15:45;;;;;;;;;;;17.40;75.90;;;;;;5003286;28;19932;-66
2024/04/08 00:18:18;;;;;;;;;;;17.30;76.00;;;;;;5003730;28;19933;-67
2024/04/08 00:21:01;;;;;;;;;;;17.30;76.00;;;;;;5005942;28;19964;-64
2024/04/08 00:23:35;;;;;;;;;;;17.30;76.00;;;;;;5002189;28;19945;-64
2024/04/08 00:26:06;;;;;;;;;;;17.30;76.00;;;;;;5004259;28;19932;-64
2024/04/08 00:28:39;;;;;;;;;;;17.30;76.00;;;;;;5005346;28;19925;-64
2024/04/08 00:31:18;;;;;;;;;;;17.20;76.10;;;;;;5003022;28;20435;-65
2024/04/08 00:33:51;;;;;;;;;;;17.20;76.30;;;;;;5003674;28;19961;-63
2024/04/08 00:36:23;;;;;;;;;;;17.10;76.50;;;;;;5004379;28;19957;-66
2024/04/08 00:38:58;;;;;;;;;;;17.10;76.70;;;;;;5006369;28;20343;-63
2024/04/08 00:41:30;;;;;;;;;;;17.10;77.00;;;;;;5006038;28;19984;-63
2024/04/08 00:44:04;;;;;;;;;;;17.00;77.30;;;;;;5002973;28;19996;-63
2024/04/08 00:46:36;;;;;;;;;;;17.00;77.50;;;;;;4999417;28;19948;-63
2024/04/08 00:49:09;;;;;;;;;;;17.00;77.60;;;;;;5004594;28;19936;-65
2024/04/08 00:51:42;;;;;;;;;;;17.00;77.70;;;;;;5006426;28;19925;-64
2024/04/08 00:54:17;;;;;;;;;;;17.00;77.70;;;;;;5006042;28;19941;-65
2024/04/08 00:56:50;;;;;;;;;;;16.90;77.80;;;;;;5004302;28;19936;-64
2024/04/08 00:59:23;;;;;;;;;;;16.90;77.80;;;;;;5003484;28;19937;-63
2024/04/08 01:01:56;;;;;;;;;;;16.90;77.80;;;;;;5003073;28;19933;-64
2024/04/08 01:04:23;;;;;;;;;;;16.90;77.90;;;;;;5004584;28;20003;-63
2024/04/08 01:06:54;;;;;;;;;;;16.90;77.90;;;;;;5007075;28;19926;-63
2024/04/08 01:09:29;;;;;;;;;;;16.90;78.00;;;;;;5006934;28;19933;-64
2024/04/08 01:12:02;;;;;;;;;;;16.90;78.00;;;;;;5005806;28;19949;-64
2024/04/08 01:14:35;;;;;;;;;;;16.90;78.00;;;;;;5006137;28;19936;-63
2024/04/08 01:17:07;;;;;;;;;;;16.90;78.10;;;;;;5004959;28;20395;-63
2024/04/08 01:19:41;;;;;;;;;;;16.90;78.10;;;;;;5008911;28;20008;-63
2024/04/08 01:22:13;;;;;;;;;;;16.90;78.20;;;;;;5009396;28;20358;-64
2024/04/08 01:24:47;;;;;;;;;;;16.80;78.30;;;;;;5009515;28;19972;-64
2024/04/08 01:27:19;;;;;;;;;;;16.90;78.40;;;;;;5006948;28;19929;-62
2024/04/08 01:30:24;;;;;;;;;;;16.80;78.50;;;;;;5006086;28;19972;-65
2024/04/08 01:33:03;;;;;;;;;;;16.80;78.60;;;;;;5006606;28;19952;-62
2024/04/08 01:35:43;;;;;;;;;;;16.80;78.80;;;;;;5002166;28;19992;-62
2024/04/08 01:38:17;;;;;;;;;;;16.70;78.90;;;;;;5006538;28;19971;-62
2024/04/08 01:40:52;;;;;;;;;;;16.70;79.00;;;;;;5004516;28;20050;-62
2024/04/08 01:43:24;;;;;;;;;;;16.80;78.90;;;;;;5005294;28;19937;-61
2024/04/08 01:45:58;;;;;;;;;;;16.70;79.00;;;;;;5009348;28;19936;-61
2024/04/08 01:48:23;;;;;;;;;;;16.70;79.10;;;;;;5000297;28;19937;-62
2024/04/08 01:50:57;;;;;;;;;;;16.70;79.00;;;;;;5003356;28;20043;-60
2024/04/08 01:53:29;;;;;;;;;;;16.70;79.00;;;;;;5008605;28;19932;-61
2024/04/08 01:56:03;;;;;;;;;;;16.70;78.90;;;;;;5006475;28;20014;-63
2024/04/08 01:58:37;;;;;;;;;;;16.70;78.70;;;;;;5000427;28;20025;-61
2024/04/08 02:01:09;;;;;;;;;;;16.70;78.60;;;;;;5007521;28;19930;-63
2024/04/08 02:03:41;;;;;;;;;;;16.70;78.70;;;;;;5004867;28;19929;-63
2024/04/08 02:06:15;;;;;;;;;;;16.70;78.60;;;;;;5003424;28;20380;-61
2024/04/08 02:08:47;;;;;;;;;;;16.70;78.70;;;;;;5009244;28;19979;-61
2024/04/08 02:11:21;;;;;;;;;;;16.70;78.60;;;;;;5002577;28;19980;-62
2024/04/08 02:13:53;;;;;;;;;;;16.70;78.60;;;;;;5007228;28;19952;-62
2024/04/08 02:16:27;;;;;;;;;;;16.60;78.70;;;;;;5005961;28;19932;-62
2024/04/08 02:18:58;;;;;;;;;;;16.60;78.90;;;;;;5006993;28;19930;-62
2024/04/08 02:21:38;;;;;;;;;;;16.60;79.00;;;;;;5005650;28;19960;-61
2024/04/08 02:24:11;;;;;;;;;;;16.60;79.10;;;;;;5008675;28;19925;-61
2024/04/08 02:26:45;;;;;;;;;;;16.60;79.20;;;;;;5001613;28;19937;-61
2024/04/08 02:29:23;;;;;;;;;;;16.60;79.30;;;;;;5008706;28;19930;-61
2024/04/08 02:32:03;;;;;;;;;;;16.60;79.40;;;;;;5004687;28;19926;-63
2024/04/08 02:34:36;;;;;;;;;;;16.50;79.40;;;;;;5008818;28;19952;-62
2024/04/08 02:37:09;;;;;;;;;;;16.50;79.50;;;;;;5003284;28;19925;-64
2024/04/08 02:39:40;;;;;;;;;;;16.60;79.60;;;;;;5006601;28;20024;-65
2024/04/08 02:42:15;;;;;;;;;;;16.60;79.70;;;;;;5006184;28;20004;-66
2024/04/08 02:44:48;;;;;;;;;;;16.50;79.80;;;;;;5003699;28;19936;-64
2024/04/08 02:47:21;;;;;;;;;;;16.50;79.90;;;;;;5006448;28;20299;-67
2024/04/08 02:49:53;;;;;;;;;;;16.50;79.80;;;;;;5009593;28;19933;-66
2024/04/08 02:52:25;;;;;;;;;;;16.50;80.00;;;;;;5001845;28;19949;-66
2024/04/08 02:54:58;;;;;;;;;;;16.50;80.00;;;;;;5005829;28;20016;-67
2024/04/08 02:57:32;;;;;;;;;;;16.50;80.00;;;;;;5005803;28;19936;-66
2024/04/08 03:00:05;;;;;;;;;;;16.50;79.90;;;;;;5001982;28;19996;-66
2024/04/08 03:02:39;;;;;;;;;;;16.50;80.00;;;;;;5004205;28;19951;-66
2024/04/08 03:05:11;;;;;;;;;;;16.50;79.90;;;;;;5003771;28;19925;-67
2024/04/08 03:07:43;;;;;;;;;;;16.40;80.00;;;;;;5007115;28;19932;-65
2024/04/08 03:10:16;;;;;;;;;;;16.40;80.10;;;;;;5006123;28;19932;-66
2024/04/08 03:12:50;;;;;;;;;;;16.40;80.10;;;;;;5006704;28;19935;-65
2024/04/08 03:15:23;;;;;;;;;;;16.40;80.30;;;;;;5005090;28;19926;-65
2024/04/08 03:17:56;;;;;;;;;;;16.40;80.40;;;;;;5006631;28;19932;-66
2024/04/08 03:20:28;;;;;;;;;;;16.40;80.40;;;;;;5007350;28;20480;-65
2024/04/08 03:23:07;;;;;;;;;;;16.40;80.50;;;;;;5006615;28;19934;-64
2024/04/08 03:25:40;;;;;;;;;;;16.30;80.60;;;;;;5005995;28;19940;-66
2024/04/08 03:28:14;;;;;;;;;;;16.30;80.70;;;;;;5006967;28;19961;-66
2024/04/08 03:30:54;;;;;;;;;;;16.30;80.60;;;;;;5008888;28;19925;-64
2024/04/08 03:33:27;;;;;;;;;;;16.30;80.60;;;;;;5000514;28;19971;-67
2024/04/08 03:36:00;;;;;;;;;;;16.30;80.80;;;;;;5006629;28;19936;-63
2024/04/08 03:38:34;;;;;;;;;;;16.30;81.00;;;;;;5009337;28;19925;-66
2024/04/08 03:41:08;;;;;;;;;;;16.20;81.00;;;;;;5005720;28;19932;-65
2024/04/08 03:43:43;;;;;;;;;;;16.20;81.10;;;;;;5005852;28;20028;-64
2024/04/08 03:46:17;;;;;;;;;;;16.20;81.20;;;;;;5007171;28;19930;-66
2024/04/08 03:48:49;;;;;;;;;;;16.20;81.10;;;;;;5001340;28;20521;-64
2024/04/08 03:51:22;;;;;;;;;;;16.30;81.00;;;;;;5005246;28;20040;-74
2024/04/08 03:53:56;;;;;;;;;;;16.30;81.00;;;;;;5007710;28;20034;-76
2024/04/08 03:56:29;;;;;;;;;;;16.20;81.10;;;;;;5004479;28;19929;-73
2024/04/08 03:59:04;;;;;;;;;;;16.20;81.20;;;;;;5006709;28;19975;-77
2024/04/08 04:01:36;;;;;;;;;;;16.20;81.30;;;;;;5007474;28;19929;-72
2024/04/08 04:04:09;;;;;;;;;;;16.20;81.30;;;;;;5010712;28;19926;-69
2024/04/08 04:06:41;;;;;;;;;;;16.20;81.30;;;;;;5008188;28;19996;-74
2024/04/08 04:09:14;;;;;;;;;;;16.20;81.20;;;;;;5006464;28;19952;-75
2024/04/08 04:11:46;;;;;;;;;;;16.10;81.40;;;;;;5007811;28;20017;-75
2024/04/08 04:14:21;;;;;;;;;;;16.10;81.40;;;;;;5007205;28;19929;-76
2024/04/08 04:16:53;;;;;;;;;;;16.10;81.30;;;;;;5005231;28;19960;-76
2024/04/08 04:19:27;;;;;;;;;;;16.10;81.40;;;;;;5008321;28;19925;-74
2024/04/08 04:22:05;;;;;;;;;;;16.10;81.40;;;;;;5006093;28;19925;-75
2024/04/08 04:24:39;;;;;;;;;;;16.10;81.60;;;;;;5006718;28;19991;-76
2024/04/08 04:27:11;;;;;;;;;;;16.10;81.70;;;;;;5008879;28;19953;-75
2024/04/08 04:29:45;;;;;;;;;;;16.10;81.80;;;;;;5010439;28;19936;-70
2024/04/08 04:32:23;;;;;;;;;;;16.00;81.90;;;;;;5008725;28;19926;-76
2024/04/08 04:34:57;;;;;;;;;;;16.00;81.90;;;;;;5003418;28;19926;-75
2024/04/08 04:37:29;;;;;;;;;;;16.00;82.00;;;;;;5001427;28;19926;-76
2024/04/08 04:39:55;;;;;;;;;;;16.00;82.00;;;;;;5009922;28;19929;-76
2024/04/08 04:42:28;;;;;;;;;;;15.90;82.00;;;;;;5006209;28;19980;-73
2024/04/08 04:45:04;;;;;;;;;;;15.90;81.90;;;;;;5009919;28;20015;-76
2024/04/08 04:47:36;;;;;;;;;;;15.90;81.90;;;;;;5004978;28;19987;-75
2024/04/08 04:50:09;;;;;;;;;;;15.90;81.90;;;;;;5011611;28;19929;-67
2024/04/08 04:52:41;;;;;;;;;;;15.90;81.90;;;;;;5009800;28;19925;-74
2024/04/08 04:55:14;;;;;;;;;;;15.90;81.90;;;;;;5012292;28;19930;-74
2024/04/08 04:57:46;;;;;;;;;;;15.90;81.90;;;;;;5007646;28;19933;-76
2024/04/08 05:00:25;;;;;;;;;;;15.80;82.00;;;;;;5004701;28;20011;-71
2024/04/08 05:02:58;;;;;;;;;;;15.80;82.10;;;;;;5009949;28;20396;-60
2024/04/08 05:05:31;;;;;;;;;;;15.80;82.00;;;;;;5009136;28;19937;-60
2024/04/08 05:08:03;;;;;;;;;;;15.70;82.10;;;;;;5006463;28;19934;-59
2024/04/08 05:10:30;;;;;;;;;;;15.70;82.10;;;;;;5009302;28;19929;-60
2024/04/08 05:13:02;;;;;;;;;;;15.70;82.10;;;;;;5008302;28;19926;-60
2024/04/08 05:15:36;;;;;;;;;;;15.70;82.30;;;;;;5008054;28;20011;-60
2024/04/08 05:18:09;;;;;;;;;;;15.70;82.30;;;;;;5009279;28;19925;-60
2024/04/08 05:20:42;;;;;;;;;;;15.70;82.30;;;;;;5010243;28;20376;-59
2024/04/08 05:23:14;;;;;;;;;;;15.70;82.40;;;;;;5010101;28;20388;-58
2024/04/08 05:25:48;;;;;;;;;;;15.70;82.40;;;;;;5010945;28;19925;-60
2024/04/08 05:28:20;;;;;;;;;;;15.70;82.40;;;;;;5009270;28;19961;-60
2024/04/08 05:30:54;;;;;;;;;;;15.70;82.40;;;;;;5006557;28;20013;-60
2024/04/08 05:33:33;;;;;;;;;;;15.60;82.50;;;;;;5008031;28;19925;-60
2024/04/08 05:36:07;;;;;;;;;;;15.60;82.40;;;;;;5008415;28;20015;-60
2024/04/08 05:38:39;;;;;;;;;;;15.60;82.40;;;;;;5008873;28;20004;-59
2024/04/08 05:41:12;;;;;;;;;;;15.60;82.50;;;;;;5011159;28;19936;-60
2024/04/08 05:43:44;;;;;;;;;;;15.60;82.50;;;;;;5011153;28;19984;-59
2024/04/08 05:46:18;;;;;;;;;;;15.60;82.40;;;;;;5010983;28;20392;-61
2024/04/08 05:48:51;;;;;;;;;;;15.60;82.50;;;;;;5010775;28;19972;-60
2024/04/08 05:51:26;;;;;;;;;;;15.60;82.70;;;;;;5007937;28;20363;-59
2024/04/08 05:53:58;;;;;;;;;;;15.60;82.60;;;;;;5009805;28;19925;-59
2024/04/08 05:56:25;;;;;;;;;;;15.70;82.60;;;;;;5011386;28;19989;-59
2024/04/08 05:58:58;;;;;;;;;;;15.70;82.50;;;;;;5009480;28;19929;-59
2024/04/08 06:01:38;;;;;;;;;;;15.70;82.70;;;;;;5007219;28;19966;-59
2024/04/08 06:04:11;;;;;;;;;;;15.60;82.70;;;;;;5009963;28;20343;-60
2024/04/08 06:06:44;;;;;;;;;;;15.70;82.60;;;;;;5010551;28;19926;-64
2024/04/08 06:09:16;;;;;;;;;;;15.70;82.70;;;;;;5008234;28;19930;-60
2024/04/08 06:11:50;;;;;;;;;;;15.70;82.70;;;;;;5009659;28;19926;-69
2024/04/08 06:14:22;;;;;;;;;;;15.80;82.60;;;;;;5008740;28;19936;-70
2024/04/08 06:16:59;;;;;;;;;;;15.80;82.60;;;;;;5008666;28;20363;-71
2024/04/08 06:19:31;;;;;;;;;;;15.80;82.70;;;;;;5006587;28;19926;-70
2024/04/08 06:22:04;;;;;;;;;;;15.90;82.50;;;;;;5004943;28;19968;-69
2024/04/08 06:24:42;;;;;;;;;;;16.00;82.40;;;;;;5008561;28;19933;-71
2024/04/08 06:27:16;;;;;;;;;;;16.10;82.10;;;;;;5008827;28;19936;-70
2024/04/08 06:29:48;;;;;;;;;;;16.10;82.00;;;;;;5010386;28;19949;-70
2024/04/08 06:32:22;;;;;;;;;;;16.20;82.10;;;;;;5010635;28;19930;-71
2024/04/08 06:34:55;;;;;;;;;;;16.20;82.00;;;;;;5006815;28;20022;-70
2024/04/08 06:37:28;;;;;;;;;;;16.40;81.80;;;;;;5010404;28;20340;-71
2024/04/08 06:40:00;;;;;;;;;;;16.50;81.50;;;;;;5006575;28;20048;-70
2024/04/08 06:42:33;;;;;;;;;;;16.50;81.50;;;;;;5010008;28;19976;-71
2024/04/08 06:45:05;;;;;;;;;;;16.50;80.70;;;;;;5009410;28;19936;-71
2024/04/08 06:47:40;;;;;;;;;;;16.60;80.60;;;;;;5009235;28;20015;-69
2024/04/08 06:50:13;;;;;;;;;;;16.60;80.50;;;;;;5009888;28;19926;-69
2024/04/08 06:52:46;;;;;;;;;;;16.70;80.80;;;;;;5009782;28;19979;-70
2024/04/08 06:55:18;;;;;;;;;;;16.80;80.20;;;;;;5007787;28;19971;-71
2024/04/08 06:57:45;;;;;;;;;;;16.90;80.50;;;;;;5008835;28;20296;-71
2024/04/08 07:07:30;;;;;;;;;;;17.20;80.30;;;;;;5007124;28;20015;-71
2024/04/08 07:10:08;;;;;;;;;;;17.30;80.10;;;;;;5009322;28;20395;-71
2024/04/08 07:12:42;;;;;;;;;;;17.40;80.10;;;;;;5003977;28;19939;-71
2024/04/08 07:15:14;;;;;;;;;;;17.50;79.90;;;;;;5006977;28;19999;-71
2024/04/08 07:17:47;;;;;;;;;;;17.60;79.80;;;;;;5007861;28;20289;-70
2024/04/08 07:20:19;;;;;;;;;;;17.60;79.50;;;;;;5008663;28;20399;-61
2024/04/08 07:22:55;;;;;;;;;;;17.70;79.00;;;;;;5007959;28;19925;-63
2024/04/08 07:25:27;;;;;;;;;;;17.90;78.70;;;;;;5009344;28;20443;-63
2024/04/08 07:28:00;;;;;;;;;;;18.00;78.10;;;;;;5007161;28;19969;-63
2024/04/08 07:30:34;;;;;;;;;;;18.10;77.50;;;;;;5007443;28;19933;-63
2024/04/08 07:33:08;;;;;;;;;;;18.20;76.90;;;;;;5007176;28;20446;-64
2024/04/08 07:35:40;;;;;;;;;;;18.40;76.50;;;;;;5005945;28;19926;-64
2024/04/08 07:38:15;;;;;;;;;;;18.50;76.10;;;;;;5007043;28;19936;-64
2024/04/08 07:40:48;;;;;;;;;;;18.70;75.00;;;;;;5007775;28;20272;-63
2024/04/08 07:43:21;;;;;;;;;;;18.80;74.60;;;;;;5007259;28;19984;-62
2024/04/08 07:45:53;;;;;;;;;;;19.00;74.10;;;;;;5008829;28;19959;-63
2024/04/08 07:48:26;;;;;;;;;;;19.10;73.70;;;;;;5009669;28;20311;-62
2024/04/08 07:50:58;;;;;;;;;;;19.30;73.30;;;;;;5001578;28;20363;-64
2024/04/08 07:53:34;;;;;;;;;;;19.40;72.80;;;;;;5009064;28;19937;-63
2024/04/08 07:56:06;;;;;;;;;;;19.60;72.40;;;;;;5005044;28;19985;-64
2024/04/08 07:58:39;;;;;;;;;;;19.70;71.90;;;;;;5007018;28;20355;-63
2024/04/08 08:01:11;;;;;;;;;;;19.90;70.90;;;;;;5008867;28;20022;-62
2024/04/08 08:03:44;;;;;;;;;;;20.10;70.30;;;;;;5010143;28;20016;-63
2024/04/08 08:06:16;;;;;;;;;;;20.10;69.70;;;;;;5009222;28;19940;-62
2024/04/08 08:08:57;;;;;;;;;;;20.30;68.80;;;;;;5007156;28;19971;-63
2024/04/08 08:11:30;;;;;;;;;;;20.50;68.00;;;;;;5006602;28;19926;-64
2024/04/08 08:14:03;;;;;;;;;;;20.70;67.00;;;;;;5008109;28;19953;-64
2024/04/08 08:16:36;;;;;;;;;;;20.80;66.70;;;;;;5006986;28;19925;-64
2024/04/08 08:19:09;;;;;;;;;;;21.00;65.80;;;;;;5004291;28;20415;-63
2024/04/08 08:21:42;;;;;;;;;;;21.10;64.60;;;;;;5007014;28;20744;-63
2024/04/08 08:24:16;;;;;;;;;;;21.30;63.80;;;;;;5009081;28;19969;-62
2024/04/08 08:26:50;;;;;;;;;;;21.40;62.40;;;;;;5008436;28;19925;-63
2024/04/08 08:29:23;;;;;;;;;;;21.60;61.40;;;;;;5011201;28;20442;-63
2024/04/08 08:31:56;;;;;;;;;;;21.70;60.60;;;;;;5009560;28;19994;-67
2024/04/08 08:34:22;;;;;;;;;;;21.90;59.70;;;;;;5010593;28;19929;-66
2024/04/08 08:36:55;;;;;;;;;;;22.00;59.00;;;;;;5006284;28;19926;-64
2024/04/08 08:39:30;;;;;;;;;;;22.10;58.20;;;;;;4998157;28;19974;-66
2024/04/08 08:42:06;;;;;;;;;;;22.30;57.20;;;;;;4998412;28;20078;-66
2024/04/08 08:44:41;;;;;;;;;;;22.40;57.00;;;;;;5002659;28;19937;-65
2024/04/08 08:47:14;;;;;;;;;;;22.50;58.80;;;;;;4992904;28;19952;-66
2024/04/08 08:49:53;;;;;;;;;;;22.60;58.20;;;;;;4994415;28;20438;-66
2024/04/08 08:52:26;;;;;;;;;;;22.70;56.70;;;;;;4997283;28;19933;-65
2024/04/08 08:54:59;;;;;;;;;;;22.80;58.20;;;;;;5000003;28;19930;-65
2024/04/08 08:57:34;;;;;;;;;;;22.90;56.80;;;;;;5006356;28;19975;-65
2024/04/08 09:00:07;;;;;;;;;;;23.00;56.60;;;;;;5008833;28;19936;-67
2024/04/08 09:02:40;;;;;;;;;;;23.10;56.50;;;;;;5011215;28;19969;-66
2024/04/08 09:05:12;;;;;;;;;;;23.10;57.40;;;;;;5011100;28;19975;-65
2024/04/08 09:07:45;;;;;;;;;;;23.10;56.70;;;;;;5011442;28;19983;-65
2024/04/08 09:10:20;;;;;;;;;;;23.20;56.80;;;;;;5008025;28;19926;-67
2024/04/08 09:12:53;;;;;;;;;;;23.30;55.30;;;;;;5010344;28;19959;-66
2024/04/08 09:15:25;;;;;;;;;;;23.40;55.60;;;;;;5010341;28;20019;-66
2024/04/08 09:18:03;;;;;;;;;;;23.50;55.80;;;;;;5009313;28;19933;-65
2024/04/08 09:20:36;;;;;;;;;;;23.60;54.80;;;;;;5010352;28;19944;-68
2024/04/08 09:23:09;;;;;;;;;;;23.60;54.90;;;;;;5007480;28;19925;-65
2024/04/08 09:25:42;;;;;;;;;;;23.70;55.10;;;;;;5009098;28;19933;-66
2024/04/08 09:28:22;;;;;;;;;;;23.80;54.60;;;;;;5007757;28;19948;-66
2024/04/08 09:30:55;;;;;;;;;;;23.90;54.60;;;;;;5009067;28;19933;-65
2024/04/08 09:33:35;;;;;;;;;;;23.90;54.00;;;;;;5008846;28;19937;-65
2024/04/08 09:36:08;;;;;;;;;;;24.00;54.10;;;;;;5008628;28;20349;-65
2024/04/08 09:38:41;;;;;;;;;;;24.10;53.30;;;;;;5007373;28;19929;-66
2024/04/08 09:41:16;;;;;;;;;;;24.10;53.40;;;;;;5009099;28;19933;-62
2024/04/08 09:43:51;;;;;;;;;;;24.20;53.30;;;;;;5008195;28;20695;-62
2024/04/08 09:46:25;;;;;;;;;;;24.40;53.40;;;;;;5007066;28;20419;-62
2024/04/08 09:48:58;;;;;;;;;;;24.50;53.20;;;;;;5008534;28;19933;-61
2024/04/08 09:51:39;;;;;;;;;;;24.60;52.50;;;;;;5007895;28;19929;-63
2024/04/08 09:54:12;;;;;;;;;;;24.60;52.60;;;;;;5008607;28;19929;-62
2024/04/08 09:56:48;;;;;;;;;;;24.60;52.10;;;;;;5009774;28;19925;-63
2024/04/08 09:59:22;;;;;;;;;;;24.70;52.00;;;;;;5007423;28;20468;-63
2024/04/08 10:01:54;;;;;;;;;;;24.80;51.10;;;;;;5008831;28;20024;-63
2024/04/08 10:04:30;;;;;;;;;;;24.80;50.90;;;;;;5009518;28;20056;-61
2024/04/08 10:07:09;;;;;;;;;;;24.80;50.90;;;;;;5009227;28;20442;-62
2024/04/08 10:09:42;;;;;;;;;;;24.90;50.90;;;;;;5009260;28;19926;-62
2024/04/08 10:12:30;;;;;;;;;;;25.00;50.70;;;;;;5005662;28;19933;-62
2024/04/08 10:15:13;;;;;;;;;;;25.10;50.70;;;;;;5009324;28;20450;-63
2024/04/08 10:17:46;;;;;;;;;;;25.10;51.00;;;;;;5007872;28;19948;-62
2024/04/08 10:20:19;;;;;;;;;;;25.10;50.60;;;;;;5008075;28;20380;-61
2024/04/08 10:22:52;;;;;;;;;;;25.10;50.60;;;;;;5009346;28;19964;-62
2024/04/08 10:25:35;;;;;;;;;;;25.20;50.30;;;;;;5010468;28;19925;-61
2024/04/08 10:28:17;;;;;;;;;;;25.20;51.50;;;;;;5009343;28;19983;-61
2024/04/08 10:30:51;;;;;;;;;;;25.20;50.00;;;;;;5010378;28;20376;-62
2024/04/08 10:33:24;;;;;;;;;;;25.20;50.30;;;;;;5009918;28;19929;-62
2024/04/08 10:35:57;;;;;;;;;;;25.30;50.10;;;;;;5011160;28;20337;-61
2024/04/08 10:38:29;;;;;;;;;;;25.40;50.20;;;;;;5007997;28;19936;-63
2024/04/08 10:41:06;;;;;;;;;;;25.30;49.90;;;;;;5009125;28;19929;-62
2024/04/08 10:43:39;;;;;;;;;;;25.40;49.90;;;;;;5010099;28;20315;-61
2024/04/08 10:46:14;;;;;;;;;;;25.50;50.40;;;;;;5009076;28;20291;-61
2024/04/08 10:48:46;;;;;;;;;;;25.40;49.00;;;;;;5004234;28;19937;-62
2024/04/08 10:51:19;;;;;;;;;;;25.30;49.50;;;;;;5009961;28;19926;-72
2024/04/08 10:53:51;;;;;;;;;;;25.30;50.20;;;;;;5008798;28;19996;-72
2024/04/08 10:56:24;;;;;;;;;;;25.30;49.40;;;;;;5007860;28;19929;-72
2024/04/08 10:58:57;;;;;;;;;;;25.30;49.30;;;;;;5010229;28;19925;-71
2024/04/08 11:01:31;;;;;;;;;;;25.30;49.40;;;;;;5010201;28;19930;-70
2024/04/08 11:04:03;;;;;;;;;;;25.40;50.40;;;;;;5009406;28;19953;-72
2024/04/08 11:06:37;;;;;;;;;;;25.20;50.30;;;;;;5010094;28;19926;-71
2024/04/08 11:09:09;;;;;;;;;;;25.30;50.30;;;;;;5010600;28;19925;-70
2024/04/08 11:11:43;;;;;;;;;;;25.40;50.20;;;;;;5008725;28;19952;-72
2024/04/08 11:14:18;;;;;;;;;;;25.30;49.60;;;;;;5007612;28;20415;-71
2024/04/08 11:16:52;;;;;;;;;;;25.30;49.40;;;;;;5008424;28;20012;-72
2024/04/08 11:19:24;;;;;;;;;;;25.30;49.30;;;;;;5006435;28;20300;-70
2024/04/08 11:21:57;;;;;;;;;;;25.20;49.10;;;;;;5006650;28;19960;-72
2024/04/08 11:24:30;;;;;;;;;;;25.20;49.30;;;;;;5004765;28;19932;-72
2024/04/08 11:27:04;;;;;;;;;;;25.20;49.90;;;;;;5006576;28;20335;-72
2024/04/08 11:29:41;;;;;;;;;;;25.20;50.00;;;;;;5009225;28;20049;-71
2024/04/08 11:32:14;;;;;;;;;;;25.20;49.70;;;;;;5006592;28;19944;-72
2024/04/08 11:34:39;;;;;;;;;;;25.20;50.30;;;;;;5008129;28;19936;-71
2024/04/08 11:37:13;;;;;;;;;;;25.30;49.50;;;;;;5003357;28;19940;-71
2024/04/08 11:39:46;;;;;;;;;;;25.20;50.00;;;;;;5006789;28;19929;-73
2024/04/08 11:42:19;;;;;;;;;;;25.10;50.50;;;;;;5008242;28;20390;-72
2024/04/08 11:44:57;;;;;;;;;;;25.20;50.50;;;;;;5009758;28;20013;-71
2024/04/08 11:47:31;;;;;;;;;;;25.30;50.10;;;;;;5008476;28;19933;-71
2024/04/08 11:50:03;;;;;;;;;;;25.30;49.50;;;;;;5010175;28;19936;-72
2024/04/08 11:52:44;;;;;;;;;;;25.30;49.10;;;;;;5008842;28;19948;-71
2024/04/08 11:55:16;;;;;;;;;;;25.30;49.70;;;;;;5008672;28;19933;-72
2024/04/08 11:57:50;;;;;;;;;;;25.40;49.80;;;;;;5008704;28;19936;-72
2024/04/08 12:00:31;;;;;;;;;;;25.40;50.40;;;;;;5009731;28;19936;-73
2024/04/08 12:03:04;;;;;;;;;;;25.40;50.30;;;;;;5009912;28;19976;-79
2024/04/08 12:05:36;;;;;;;;;;;25.30;49.20;;;;;;5009212;28;19957;-76
2024/04/08 12:08:09;;;;;;;;;;;25.30;49.40;;;;;;5007875;28;19929;-72
2024/04/08 12:10:41;;;;;;;;;;;25.20;49.10;;;;;;5010141;28;19929;-74
2024/04/08 12:13:15;;;;;;;;;;;25.20;50.30;;;;;;5005772;28;20438;-77
2024/04/08 12:15:50;;;;;;;;;;;25.20;50.70;;;;;;5007436;28;21523;-74
2024/04/08 12:18:23;;;;;;;;;;;25.20;49.90;;;;;;5010294;28;19925;-77
2024/04/08 12:20:56;;;;;;;;;;;25.20;49.60;;;;;;5009192;28;19936;-77
2024/04/08 12:23:29;;;;;;;;;;;25.20;49.90;;;;;;5008611;28;20736;-76
2024/04/08 12:26:01;;;;;;;;;;;25.20;49.50;;;;;;5007542;28;20311;-76
2024/04/08 12:28:34;;;;;;;;;;;25.20;50.40;;;;;;5006228;28;19939;-76
2024/04/08 12:31:07;;;;;;;;;;;25.30;50.70;;;;;;5010003;28;19926;-74
2024/04/08 12:33:41;;;;;;;;;;;25.30;49.80;;;;;;5003263;28;20021;-73
2024/04/08 12:36:13;;;;;;;;;;;25.30;50.20;;;;;;5005398;28;19933;-76
2024/04/08 12:38:48;;;;;;;;;;;25.20;50.00;;;;;;5009214;28;19929;-76
2024/04/08 12:41:22;;;;;;;;;;;25.20;49.80;;;;;;5007056;28;20295;-77
2024/04/08 12:43:56;;;;;;;;;;;25.10;50.00;;;;;;5008540;28;19926;-74
2024/04/08 12:46:29;;;;;;;;;;;25.00;50.10;;;;;;5008534;28;19972;-74
2024/04/08 12:49:03;;;;;;;;;;;25.00;50.60;;;;;;5008918;28;20001;-76
2024/04/08 12:51:35;;;;;;;;;;;25.10;49.80;;;;;;5005555;28;19929;-74
2024/04/08 12:54:14;;;;;;;;;;;25.00;50.30;;;;;;5007689;28;20356;-76
2024/04/08 12:56:46;;;;;;;;;;;25.00;50.20;;;;;;5005674;28;20442;-76
2024/04/08 13:01:45;;;;;;;;;;;24.90;49.20;;;;;;5462738;25;19940;-74
2024/04/08 13:04:18;;;;;;;;;;;24.80;48.70;;;;;;5462769;26;19928;-71
2024/04/08 13:06:54;;;;;;;;;;;24.90;48.90;;;;;;5462113;26;19943;-73
2024/04/08 13:09:26;;;;;;;;;;;24.90;48.90;;;;;;5461830;26;19940;-73
2024/04/08 13:12:00;;;;;;;;;;;25.00;49.80;;;;;;5459298;26;20004;-61
2024/04/08 13:14:33;;;;;;;;;;;24.90;49.40;;;;;;5451776;26;20000;-61
2024/04/08 13:17:11;;;;;;;;;;;25.00;49.30;;;;;;5462828;26;19929;-62
2024/04/08 13:19:44;;;;;;;;;;;25.10;49.60;;;;;;5458681;26;21391;-62
2024/04/08 13:22:20;;;;;;;;;;;25.10;49.70;;;;;;5463027;26;19932;-61
2024/04/08 13:24:52;;;;;;;;;;;25.10;49.30;;;;;;5458486;26;19928;-61
2024/04/08 13:27:34;;;;;;;;;;;25.10;49.00;;;;;;5463023;26;20444;-62
2024/04/08 13:30:07;;;;;;;;;;;25.10;49.50;;;;;;5463792;26;20260;-62
2024/04/08 13:32:45;;;;;;;;;;;25.10;49.50;;;;;;5460589;26;20001;-61
2024/04/08 13:35:18;;;;;;;;;;;25.10;49.40;;;;;;5460764;26;19928;-61
2024/04/08 13:37:57;;;;;;;;;;;25.10;49.50;;;;;;5455419;26;19928;-61
2024/04/08 13:40:29;;;;;;;;;;;25.00;48.80;;;;;;5453500;26;19935;-62
2024/04/08 13:43:04;;;;;;;;;;;25.00;49.90;;;;;;5462953;26;19929;-62
2024/04/08 13:45:37;;;;;;;;;;;25.10;49.10;;;;;;5461009;26;19929;-62
2024/04/08 13:48:15;;;;;;;;;;;25.10;49.60;;;;;;5463467;26;20268;-62
2024/04/08 13:50:48;;;;;;;;;;;25.20;49.30;;;;;;5459893;26;19935;-62
2024/04/08 13:53:30;;;;;;;;;;;25.10;49.20;;;;;;5461256;26;19928;-62
2024/04/08 13:56:03;;;;;;;;;;;25.10;50.00;;;;;;5430424;26;19937;-62
2024/04/08 13:58:38;;;;;;;;;;;25.10;49.30;;;;;;5412504;26;19960;-62
2024/04/08 14:01:11;;;;;;;;;;;25.00;49.90;;;;;;5462924;26;19934;-63
2024/04/08 14:04:08;;;;;;;;;;;25.00;49.80;;;;;;5423967;26;19929;-60
2024/04/08 14:06:42;;;;;;;;;;;24.90;50.50;;;;;;5417284;26;19936;-61
2024/04/08 14:09:24;;;;;;;;;;;24.90;50.10;;;;;;5418680;26;19935;-62
2024/04/08 14:11:57;;;;;;;;;;;24.90;49.80;;;;;;5403136;26;19964;-61
2024/04/08 14:14:32;;;;;;;;;;;24.90;51.00;;;;;;5398925;26;20371;-61
2024/04/08 14:17:12;;;;;;;;;;;24.90;50.50;;;;;;5396993;26;19929;-61
2024/04/08 14:19:46;;;;;;;;;;;24.80;50.60;;;;;;5405642;26;19953;-61
2024/04/08 14:22:15;;;;;;;;;;;24.80;50.70;;;;;;5408432;26;19935;-63
2024/04/08 14:24:51;;;;;;;;;;;24.80;50.90;;;;;;5410126;26;19928;-64
2024/04/08 14:27:30;;;;;;;;;;;24.80;51.00;;;;;;5408108;26;19929;-62
2024/04/08 14:30:06;;;;;;;;;;;24.80;51.10;;;;;;5407005;26;19965;-63
2024/04/08 14:32:39;;;;;;;;;;;24.80;50.60;;;;;;5425377;26;19968;-61
2024/04/08 14:35:14;;;;;;;;;;;24.80;51.00;;;;;;5441261;26;19928;-62
2024/04/08 14:37:43;;;;;;;;;;;24.70;50.70;;;;;;5444074;26;19940;-60
2024/04/08 14:40:19;;;;;;;;;;;24.70;51.60;;;;;;5440874;26;19928;-62
2024/04/08 14:42:54;;;;;;;;;;;24.60;51.20;;;;;;5440209;26;19937;-61
2024/04/08 14:45:27;;;;;;;;;;;24.70;51.40;;;;;;5437755;26;19940;-61
2024/04/08 14:48:02;;;;;;;;;;;24.60;51.50;;;;;;5440994;26;19928;-63
2024/04/08 14:50:35;;;;;;;;;;;24.60;51.30;;;;;;5443808;26;19929;-62
2024/04/08 14:53:20;;;;;;;;;;;24.50;51.00;;;;;;5446830;26;19928;-64
2024/04/08 14:55:52;;;;;;;;;;;24.50;51.40;;;;;;5439334;26;19936;-63
2024/04/08 14:58:28;;;;;;;;;;;24.50;51.80;;;;;;5432581;26;19941;-61
2024/04/08 15:01:01;;;;;;;;;;;24.50;50.50;;;;;;5441728;26;20378;-62
2024/04/08 15:03:36;;;;;;;;;;;24.40;50.90;;;;;;5441374;26;20264;-61